首页
METAR-TAF:

METAR-TAF

机场 :

Salt Point, 路易斯安那州, 美国

纬度: 29-33-44N, 经度: 091-31-32W, 海拔: 0米

当前天气观测

该预报发布于7小时和4分钟前的22:59 UTC
风速5节,风向东北
温度 9°C
湿度 43%
气压 1029 hPa

METAR: KP92 212259Z AUTO 04005KT 09/M03 A3040 RMK AO1 SLP294 T00941028

时间: 00:03 (06:03 UTC)


TAF: 丢失

超过4000个机场的气象观测和天气预报(METAR&TAF报告)。

可查询的气象台以黄色和红色小点在地图上表示。

将鼠标移到小点上方,可查看气象台名称。

然后点击查看天气观测和预报。

如需切换地图:点击带黑十字的绿色按钮放大地图;点击带横线的绿色按钮缩小地图;或者点击绿色箭头查看邻近地区的地图。


METAR-TAF: